createdAt,value
2023-01-27T00:08:26.391Z,116.28
2023-01-27T00:23:49.107Z,102.22
2023-01-27T00:38:51.124Z,102.40
2023-01-27T00:53:53.206Z,102.60
2023-01-27T01:08:57.653Z,101.00
2023-01-27T01:23:59.726Z,116.97
2023-01-27T01:39:01.859Z,113.65
2023-01-27T01:54:09.605Z,111.50
2023-01-27T02:24:14.136Z,123.78
2023-01-27T02:39:19.032Z,118.00
2023-01-27T02:54:21.041Z,125.60
2023-01-27T03:09:23.017Z,124.80
2023-01-27T03:24:25.105Z,129.18
2023-01-27T03:39:45.617Z,112.10
2023-01-27T03:54:47.601Z,127.43
2023-01-27T04:09:50.451Z,130.50
2023-01-27T04:24:52.403Z,120.97
2023-01-27T04:39:54.422Z,123.70
2023-01-27T04:54:56.420Z,71.22
2023-01-27T05:09:58.876Z,53.30
2023-01-27T05:25:00.927Z,63.28
2023-01-27T05:40:03.035Z,73.03
2023-01-27T05:55:05.455Z,71.43
2023-01-27T06:10:07.861Z,70.28
2023-01-27T06:25:09.950Z,58.97
2023-01-27T06:40:12.498Z,68.88
2023-01-27T06:55:15.289Z,64.50
2023-01-27T07:10:17.544Z,75.53
2023-01-27T07:25:19.536Z,74.10
2023-01-27T07:40:21.697Z,77.07
2023-01-27T07:55:23.708Z,68.35
2023-01-27T08:10:25.701Z,73.45
2023-01-27T08:25:28.026Z,61.97
2023-01-27T08:40:30.031Z,59.13
2023-01-27T08:55:33.302Z,66.38
2023-01-27T09:10:39.625Z,69.80
2023-01-27T09:25:41.589Z,190.45
2023-01-27T09:41:24.483Z,176.25
2023-01-27T09:56:32.502Z,164.85
2023-01-27T10:12:03.545Z,168.55
2023-01-27T10:27:12.743Z,119.57
2023-01-27T10:42:24.227Z,110.88
2023-01-27T10:57:37.393Z,91.00
2023-01-27T11:12:43.755Z,104.13
2023-01-27T11:28:07.219Z,122.65
2023-01-27T11:43:17.641Z,146.80
2023-01-27T11:58:37.570Z,144.88
2023-01-27T12:13:49.600Z,149.35
2023-01-27T12:28:53.297Z,126.68
2023-01-27T12:44:25.651Z,119.05
2023-01-27T12:59:28.560Z,126.93
2023-01-27T13:14:35.664Z,128.07
2023-01-27T13:29:39.815Z,188.57
2023-01-27T13:44:44.367Z,132.70
2023-01-27T14:00:19.812Z,131.32
2023-01-27T14:15:42.353Z,129.93
2023-01-27T14:30:56.049Z,123.93
2023-01-27T14:46:24.363Z,114.70
2023-01-27T15:01:26.313Z,100.13
2023-01-27T15:16:54.282Z,98.60
2023-01-27T15:32:15.498Z,101.43
2023-01-27T15:47:23.771Z,99.60
2023-01-27T16:02:29.025Z,94.38
2023-01-27T16:17:34.251Z,91.43
2023-01-27T16:32:40.942Z,105.80
2023-01-27T16:47:49.999Z,101.18
2023-01-27T17:02:53.654Z,104.13
2023-01-27T17:17:57.426Z,95.30
2023-01-27T17:33:01.716Z,96.45
2023-01-27T17:48:04.829Z,93.85
2023-01-27T18:03:34.598Z,79.57
2023-01-27T18:18:36.783Z,87.82
2023-01-27T18:33:39.060Z,87.32
2023-01-27T18:48:41.052Z,93.53
2023-01-27T19:03:43.075Z,95.15
2023-01-27T19:18:45.223Z,82.28
2023-01-27T19:33:47.638Z,85.40
2023-01-27T19:48:49.710Z,88.47
2023-01-27T20:03:52.605Z,79.47
2023-01-27T20:18:54.953Z,81.35
2023-01-27T20:33:56.926Z,78.15
2023-01-27T20:48:59.637Z,79.95
2023-01-27T21:04:01.651Z,77.93
2023-01-27T21:19:03.773Z,76.18
2023-01-27T21:34:06.374Z,83.15
2023-01-27T21:49:08.366Z,82.97
2023-01-27T22:04:10.464Z,77.50
2023-01-27T22:19:12.466Z,79.60
2023-01-27T22:34:14.880Z,71.32
2023-01-27T22:49:17.156Z,70.80
2023-01-27T23:04:19.119Z,69.55
2023-01-27T23:19:22.034Z,67.35
2023-01-27T23:34:24.235Z,72.50
2023-01-27T23:49:27.452Z,68.93
